sensor_id;sensor_type;location;lat;lon;timestamp;pressure;altitude;pressure_sealevel;temperature;humidity
7050;BME280;22263;52.260;10.548;2023-05-14T00:02:18;100857.13;;;15.41;100.00
7050;BME280;22263;52.260;10.548;2023-05-14T00:04:51;100846.75;;;15.42;100.00
7050;BME280;22263;52.260;10.548;2023-05-14T00:07:21;100848.38;;;15.39;100.00
7050;BME280;22263;52.260;10.548;2023-05-14T00:09:56;100842.00;;;15.35;100.00
7050;BME280;22263;52.260;10.548;2023-05-14T00:12:26;100838.41;;;15.31;100.00
7050;BME280;22263;52.260;10.548;2023-05-14T00:14:56;100844.78;;;15.32;100.00
7050;BME280;22263;52.260;10.548;2023-05-14T00:17:26;100846.78;;;15.31;100.00
7050;BME280;22263;52.260;10.548;2023-05-14T00:19:58;100844.78;;;15.32;100.00
7050;BME280;22263;52.260;10.548;2023-05-14T00:22:28;100844.81;;;15.28;100.00
7050;BME280;22263;52.260;10.548;2023-05-14T00:24:58;100847.19;;;15.26;100.00
7050;BME280;22263;52.260;10.548;2023-05-14T00:27:28;100852.38;;;15.27;100.00
7050;BME280;22263;52.260;10.548;2023-05-14T00:29:58;100843.22;;;15.23;100.00
7050;BME280;22263;52.260;10.548;2023-05-14T00:32:27;100848.03;;;15.19;100.00
7050;BME280;22263;52.260;10.548;2023-05-14T00:35:00;100842.44;;;15.16;100.00
7050;BME280;22263;52.260;10.548;2023-05-14T00:37:30;100843.63;;;15.11;100.00
7050;BME280;22263;52.260;10.548;2023-05-14T00:40:00;100850.44;;;15.10;100.00
7050;BME280;22263;52.260;10.548;2023-05-14T00:42:30;100841.66;;;15.08;100.00
7050;BME280;22263;52.260;10.548;2023-05-14T00:44:59;100841.66;;;15.01;100.00
7050;BME280;22263;52.260;10.548;2023-05-14T00:47:29;100844.06;;;14.99;100.00
7050;BME280;22263;52.260;10.548;2023-05-14T00:50:03;100840.47;;;14.99;100.00
7050;BME280;22263;52.260;10.548;2023-05-14T00:52:33;100845.66;;;14.93;100.00
7050;BME280;22263;52.260;10.548;2023-05-14T00:55:05;100843.69;;;14.87;100.00
7050;BME280;22263;52.260;10.548;2023-05-14T00:57:36;100841.31;;;14.81;100.00
7050;BME280;22263;52.260;10.548;2023-05-14T01:00:07;100830.56;;;14.69;100.00
7050;BME280;22263;52.260;10.548;2023-05-14T01:02:37;100836.50;;;14.68;100.00
7050;BME280;22263;52.260;10.548;2023-05-14T01:05:10;100838.91;;;14.66;100.00
7050;BME280;22263;52.260;10.548;2023-05-14T01:07:47;100840.09;;;14.65;100.00
7050;BME280;22263;52.260;10.548;2023-05-14T01:10:22;100832.16;;;14.60;100.00
7050;BME280;22263;52.260;10.548;2023-05-14T01:13:00;100836.13;;;14.55;100.00
7050;BME280;22263;52.260;10.548;2023-05-14T01:15:32;100831.75;;;14.54;100.00
7050;BME280;22263;52.260;10.548;2023-05-14T01:18:11;100831.34;;;14.49;100.00
7050;BME280;22263;52.260;10.548;2023-05-14T01:20:45;100836.13;;;14.37;100.00
7050;BME280;22263;52.260;10.548;2023-05-14T01:23:17;100835.31;;;14.37;100.00
7050;BME280;22263;52.260;10.548;2023-05-14T01:25:47;100836.13;;;14.37;100.00
7050;BME280;22263;52.260;10.548;2023-05-14T01:28:18;100839.28;;;14.39;100.00
7050;BME280;22263;52.260;10.548;2023-05-14T01:30:53;100834.88;;;14.31;100.00
7050;BME280;22263;52.260;10.548;2023-05-14T01:33:28;100834.09;;;14.31;100.00
7050;BME280;22263;52.260;10.548;2023-05-14T01:35:58;100836.88;;;14.27;100.00
7050;BME280;22263;52.260;10.548;2023-05-14T01:38:32;100840.03;;;14.19;100.00
7050;BME280;22263;52.260;10.548;2023-05-14T01:41:02;100838.41;;;14.07;100.00
7050;BME280;22263;52.260;10.548;2023-05-14T01:43:33;100843.16;;;14.03;100.00
7050;BME280;22263;52.260;10.548;2023-05-14T01:46:04;100839.59;;;13.99;100.00
7050;BME280;22263;52.260;10.548;2023-05-14T01:48:33;100834.81;;;14.00;100.00
7050;BME280;22263;52.260;10.548;2023-05-14T01:51:03;100831.63;;;13.97;100.00
7050;BME280;22263;52.260;10.548;2023-05-14T01:53:36;100839.59;;;13.95;100.00
7050;BME280;22263;52.260;10.548;2023-05-14T01:56:06;100834.78;;;13.96;100.00
7050;BME280;22263;52.260;10.548;2023-05-14T01:58:36;100834.41;;;13.90;100.00
7050;BME280;22263;52.260;10.548;2023-05-14T02:01:05;100839.13;;;13.83;100.00
7050;BME280;22263;52.260;10.548;2023-05-14T02:03:35;100842.72;;;13.83;100.00
7050;BME280;22263;52.260;10.548;2023-05-14T02:06:05;100836.72;;;13.78;100.00
7050;BME280;22263;52.260;10.548;2023-05-14T02:08:37;100837.91;;;13.77;100.00
7050;BME280;22263;52.260;10.548;2023-05-14T02:11:08;100835.13;;;13.70;100.00
7050;BME280;22263;52.260;10.548;2023-05-14T02:13:37;100829.94;;;13.65;100.00
7050;BME280;22263;52.260;10.548;2023-05-14T02:16:08;100829.88;;;13.58;100.00
7050;BME280;22263;52.260;10.548;2023-05-14T02:18:38;100831.47;;;13.55;100.00
7050;BME280;22263;52.260;10.548;2023-05-14T02:21:08;100821.94;;;13.52;100.00
7050;BME280;22263;52.260;10.548;2023-05-14T02:23:40;100825.50;;;13.46;100.00
7050;BME280;22263;52.260;10.548;2023-05-14T02:26:10;100814.75;;;13.44;100.00
7050;BME280;22263;52.260;10.548;2023-05-14T02:28:40;100816.72;;;13.40;100.00
7050;BME280;22263;52.260;10.548;2023-05-14T02:31:11;100818.69;;;13.36;100.00
7050;BME280;22263;52.260;10.548;2023-05-14T02:33:43;100823.44;;;13.36;100.00
7050;BME280;22263;52.260;10.548;2023-05-14T02:36:13;100818.28;;;13.34;100.00
7050;BME280;22263;52.260;10.548;2023-05-14T02:38:45;100814.31;;;13.35;100.00
7050;BME280;22263;52.260;10.548;2023-05-14T02:41:15;100817.47;;;13.34;100.00
7050;BME280;22263;52.260;10.548;2023-05-14T02:43:45;100816.66;;;13.30;100.00
7050;BME280;22263;52.260;10.548;2023-05-14T02:46:15;100816.66;;;13.26;100.00
7050;BME280;22263;52.260;10.548;2023-05-14T02:48:48;100822.16;;;13.16;100.00
7050;BME280;22263;52.260;10.548;2023-05-14T02:51:18;100815.78;;;13.15;100.00
7050;BME280;22263;52.260;10.548;2023-05-14T02:53:51;100816.56;;;13.12;100.00
7050;BME280;22263;52.260;10.548;2023-05-14T02:56:21;100821.25;;;13.04;100.00
7050;BME280;22263;52.260;10.548;2023-05-14T02:58:52;100818.06;;;12.99;100.00
7050;BME280;22263;52.260;10.548;2023-05-14T03:01:22;100820.41;;;12.97;100.00
7050;BME280;22263;52.260;10.548;2023-05-14T03:03:52;100817.63;;;12.97;100.00
7050;BME280;22263;52.260;10.548;2023-05-14T03:06:22;100818.00;;;12.92;100.00
7050;BME280;22263;52.260;10.548;2023-05-14T03:08:55;100815.66;;;12.94;100.00
7050;BME280;22263;52.260;10.548;2023-05-14T03:11:24;100821.94;;;12.87;100.00
7050;BME280;22263;52.260;10.548;2023-05-14T03:13:54;100825.44;;;12.81;100.00
7050;BME280;22263;52.260;10.548;2023-05-14T03:16:24;100814.31;;;12.77;100.00
7050;BME280;22263;52.260;10.548;2023-05-14T03:18:54;100811.09;;;12.72;100.00
7050;BME280;22263;52.260;10.548;2023-05-14T03:21:23;100821.06;;;12.76;100.00
7050;BME280;22263;52.260;10.548;2023-05-14T03:23:56;100820.56;;;12.63;100.00
7050;BME280;22263;52.260;10.548;2023-05-14T03:26:26;100821.69;;;12.55;100.00
7050;BME280;22263;52.260;10.548;2023-05-14T03:28:56;100818.53;;;12.57;100.00
7050;BME280;22263;52.260;10.548;2023-05-14T03:31:26;100817.69;;;12.49;100.00
7050;BME280;22263;52.260;10.548;2023-05-14T03:33:55;100822.41;;;12.45;100.00
7050;BME280;22263;52.260;10.548;2023-05-14T03:36:25;100818.50;;;12.53;100.00
7050;BME280;22263;52.260;10.548;2023-05-14T03:38:57;100810.97;;;12.50;100.00
7050;BME280;22263;52.260;10.548;2023-05-14T03:41:27;100814.56;;;12.54;100.00
7050;BME280;22263;52.260;10.548;2023-05-14T03:43:57;100813.78;;;12.57;100.00
7050;BME280;22263;52.260;10.548;2023-05-14T03:46:27;100815.78;;;12.60;100.00
7050;BME280;22263;52.260;10.548;2023-05-14T03:48:57;100807.47;;;12.60;100.00
7050;BME280;22263;52.260;10.548;2023-05-14T03:51:27;100807.50;;;12.64;100.00
7050;BME280;22263;52.260;10.548;2023-05-14T03:54:00;100810.28;;;12.64;100.00
7050;BME280;22263;52.260;10.548;2023-05-14T03:56:30;100798.34;;;12.60;100.00
7050;BME280;22263;52.260;10.548;2023-05-14T03:58:59;100806.28;;;12.61;100.00
7050;BME280;22263;52.260;10.548;2023-05-14T04:01:30;100810.63;;;12.59;100.00
7050;BME280;22263;52.260;10.548;2023-05-14T04:04:00;100809.47;;;12.63;100.00
7050;BME280;22263;52.260;10.548;2023-05-14T04:06:31;100809.84;;;12.62;100.00
7050;BME280;22263;52.260;10.548;2023-05-14T04:09:04;100810.69;;;12.66;100.00
7050;BME280;22263;52.260;10.548;2023-05-14T04:11:33;100805.06;;;12.55;100.00
7050;BME280;22263;52.260;10.548;2023-05-14T04:14:04;100800.31;;;12.59;100.00
7050;BME280;22263;52.260;10.548;2023-05-14T04:16:34;100793.41;;;12.39;100.00
7050;BME280;22263;52.260;10.548;2023-05-14T04:19:04;100808.91;;;12.44;100.00
7050;BME280;22263;52.260;10.548;2023-05-14T04:21:34;100804.19;;;12.48;100.00
7050;BME280;22263;52.260;10.548;2023-05-14T04:24:07;100793.09;;;12.48;100.00
7050;BME280;22263;52.260;10.548;2023-05-14T04:26:37;100801.03;;;12.49;100.00
7050;BME280;22263;52.260;10.548;2023-05-14T04:29:07;100804.66;;;12.57;100.00
7050;BME280;22263;52.260;10.548;2023-05-14T04:31:36;100803.53;;;12.65;100.00
7050;BME280;22263;52.260;10.548;2023-05-14T04:34:06;100796.03;;;12.69;100.00
7050;BME280;22263;52.260;10.548;2023-05-14T04:36:36;100807.50;;;12.64;100.00
7050;BME280;22263;52.260;10.548;2023-05-14T04:39:08;100796.44;;;12.71;100.00
7050;BME280;22263;52.260;10.548;2023-05-14T04:41:38;100790.94;;;12.75;100.00
7050;BME280;22263;52.260;10.548;2023-05-14T04:44:08;100799.63;;;12.73;100.00
7050;BME280;22263;52.260;10.548;2023-05-14T04:46:38;100798.09;;;12.79;100.00
7050;BME280;22263;52.260;10.548;2023-05-14T04:49:07;100794.97;;;12.84;100.00
7050;BME280;22263;52.260;10.548;2023-05-14T04:51:37;100793.81;;;12.92;100.00
7050;BME280;22263;52.260;10.548;2023-05-14T04:54:10;100797.38;;;12.93;100.00
7050;BME280;22263;52.260;10.548;2023-05-14T04:56:40;100794.97;;;12.88;100.00
7050;BME280;22263;52.260;10.548;2023-05-14T04:59:09;100792.28;;;13.02;100.00
7050;BME280;22263;52.260;10.548;2023-05-14T05:01:39;100796.75;;;13.14;100.00
7050;BME280;22263;52.260;10.548;2023-05-14T05:04:09;100798.31;;;13.11;100.00
7050;BME280;22263;52.260;10.548;2023-05-14T05:06:39;100792.44;;;13.23;100.00
7050;BME280;22263;52.260;10.548;2023-05-14T05:09:11;100794.44;;;13.30;100.00
7050;BME280;22263;52.260;10.548;2023-05-14T05:11:42;100788.59;;;13.52;100.00
7050;BME280;22263;52.260;10.548;2023-05-14T05:14:11;100790.22;;;13.61;100.00
7050;BME280;22263;52.260;10.548;2023-05-14T05:16:41;100790.66;;;13.73;100.00
7050;BME280;22263;52.260;10.548;2023-05-14T05:19:11;100795.88;;;13.89;100.00
7050;BME280;22263;52.260;10.548;2023-05-14T05:21:41;100787.94;;;14.02;100.00
7050;BME280;22263;52.260;10.548;2023-05-14T05:24:13;100790.34;;;14.17;100.00
7050;BME280;22263;52.260;10.548;2023-05-14T05:26:43;100786.41;;;14.29;100.00
7050;BME280;22263;52.260;10.548;2023-05-14T05:29:13;100797.56;;;14.47;100.00
7050;BME280;22263;52.260;10.548;2023-05-14T05:31:42;100793.56;;;14.65;100.00
7050;BME280;22263;52.260;10.548;2023-05-14T05:34:12;100786.41;;;14.75;100.00
7050;BME280;22263;52.260;10.548;2023-05-14T05:36:42;100785.97;;;14.94;100.00
7050;BME280;22263;52.260;10.548;2023-05-14T05:39:15;100785.19;;;15.01;100.00
7050;BME280;22263;52.260;10.548;2023-05-14T05:41:44;100784.78;;;14.95;100.00
7050;BME280;22263;52.260;10.548;2023-05-14T05:44:14;100783.59;;;15.00;100.00
7050;BME280;22263;52.260;10.548;2023-05-14T05:46:44;100790.00;;;14.75;100.00
7050;BME280;22263;52.260;10.548;2023-05-14T05:49:14;100785.63;;;14.71;100.00
7050;BME280;22263;52.260;10.548;2023-05-14T05:51:43;100777.22;;;14.89;100.00
7050;BME280;22263;52.260;10.548;2023-05-14T05:54:16;100773.22;;;15.14;100.00
7050;BME280;22263;52.260;10.548;2023-05-14T05:56:46;100769.22;;;15.15;100.00
7050;BME280;22263;52.260;10.548;2023-05-14T05:59:16;100780.72;;;15.21;100.00
7050;BME280;22263;52.260;10.548;2023-05-14T06:01:48;100777.97;;;15.17;100.00
7050;BME280;22263;52.260;10.548;2023-05-14T06:04:18;100787.09;;;15.21;100.00
7050;BME280;22263;52.260;10.548;2023-05-14T06:06:48;100783.91;;;15.26;100.00
7050;BME280;22263;52.260;10.548;2023-05-14T06:09:20;100787.06;;;15.39;100.00
7050;BME280;22263;52.260;10.548;2023-05-14T06:11:50;100779.53;;;15.25;100.00
7050;BME280;22263;52.260;10.548;2023-05-14T06:14:20;100788.63;;;15.44;100.00
7050;BME280;22263;52.260;10.548;2023-05-14T06:16:50;100782.59;;;15.59;100.00
7050;BME280;22263;52.260;10.548;2023-05-14T06:19:21;100782.97;;;15.65;100.00
7050;BME280;22263;52.260;10.548;2023-05-14T06:21:51;100792.13;;;15.69;100.00
7050;BME280;22263;52.260;10.548;2023-05-14T06:24:27;100795.19;;;15.89;100.00
7050;BME280;22263;52.260;10.548;2023-05-14T06:26:56;100795.66;;;15.80;100.00
7050;BME280;22263;52.260;10.548;2023-05-14T06:29:26;100792.44;;;15.85;100.00
7050;BME280;22263;52.260;10.548;2023-05-14T06:32:00;100794.81;;;15.83;100.00
7050;BME280;22263;52.260;10.548;2023-05-14T06:34:30;100790.44;;;15.86;100.00
7050;BME280;22263;52.260;10.548;2023-05-14T06:37:00;100798.31;;;15.98;100.00
7050;BME280;22263;52.260;10.548;2023-05-14T06:39:32;100794.00;;;15.90;100.00
7050;BME280;22263;52.260;10.548;2023-05-14T06:42:03;100791.75;;;15.63;100.00
7050;BME280;22263;52.260;10.548;2023-05-14T06:44:36;100792.84;;;15.87;100.00
7050;BME280;22263;52.260;10.548;2023-05-14T06:47:05;100780.28;;;16.17;100.00
7050;BME280;22263;52.260;10.548;2023-05-14T06:49:36;100784.50;;;16.39;100.00
7050;BME280;22263;52.260;10.548;2023-05-14T06:52:06;100783.66;;;16.42;100.00
7050;BME280;22263;52.260;10.548;2023-05-14T06:54:38;100771.78;;;16.34;100.00
7050;BME280;22263;52.260;10.548;2023-05-14T06:57:08;100773.13;;;16.67;100.00
7050;BME280;22263;52.260;10.548;2023-05-14T06:59:38;100784.34;;;16.56;100.00
7050;BME280;22263;52.260;10.548;2023-05-14T07:02:07;100779.72;;;16.36;100.00
7050;BME280;22263;52.260;10.548;2023-05-14T07:04:37;100769.34;;;16.36;100.00
7050;BME280;22263;52.260;10.548;2023-05-14T07:07:07;100777.56;;;16.61;100.00
7050;BME280;22263;52.260;10.548;2023-05-14T07:09:46;100775.06;;;16.74;100.00
7050;BME280;22263;52.260;10.548;2023-05-14T07:12:19;100771.28;;;16.91;100.00
7050;BME280;22263;52.260;10.548;2023-05-14T07:14:51;100777.22;;;16.96;100.00
7050;BME280;22263;52.260;10.548;2023-05-14T07:17:22;100761.09;;;17.45;100.00
7050;BME280;22263;52.260;10.548;2023-05-14T07:19:53;100767.16;;;17.40;100.00
7050;BME280;22263;52.260;10.548;2023-05-14T07:22:23;100764.06;;;17.65;100.00
7050;BME280;22263;52.260;10.548;2023-05-14T07:24:55;100763.16;;;17.37;100.00
7050;BME280;22263;52.260;10.548;2023-05-14T07:27:25;100757.81;;;17.20;100.00
7050;BME280;22263;52.260;10.548;2023-05-14T07:29:54;100753.06;;;17.47;100.00
7050;BME280;22263;52.260;10.548;2023-05-14T07:32:24;100750.19;;;17.54;100.00
7050;BME280;22263;52.260;10.548;2023-05-14T07:34:54;100750.38;;;17.70;100.00
7050;BME280;22263;52.260;10.548;2023-05-14T07:37:26;100737.72;;;18.16;100.00
7050;BME280;22263;52.260;10.548;2023-05-14T07:39:59;100736.38;;;18.24;100.00
7050;BME280;22263;52.260;10.548;2023-05-14T07:42:28;100746.59;;;18.11;100.00
7050;BME280;22263;52.260;10.548;2023-05-14T07:45:04;100741.38;;;17.86;100.00
7050;BME280;22263;52.260;10.548;2023-05-14T07:47:35;100743.13;;;18.03;100.00
7050;BME280;22263;52.260;10.548;2023-05-14T07:50:06;100729.94;;;18.27;100.00
7050;BME280;22263;52.260;10.548;2023-05-14T07:52:36;100724.69;;;18.29;100.00
7050;BME280;22263;52.260;10.548;2023-05-14T07:55:09;100726.75;;;18.48;100.00
7050;BME280;22263;52.260;10.548;2023-05-14T07:57:39;100729.38;;;18.82;100.00
7050;BME280;22263;52.260;10.548;2023-05-14T08:00:09;100724.56;;;18.83;100.00
7050;BME280;22263;52.260;10.548;2023-05-14T08:02:39;100733.19;;;18.92;100.00
7050;BME280;22263;52.260;10.548;2023-05-14T08:05:10;100729.19;;;19.12;100.00
7050;BME280;22263;52.260;10.548;2023-05-14T08:07:39;100725.44;;;19.39;100.00
7050;BME280;22263;52.260;10.548;2023-05-14T08:10:12;100722.91;;;19.64;100.00
7050;BME280;22263;52.260;10.548;2023-05-14T08:12:42;100721.41;;;20.12;100.00
7050;BME280;22263;52.260;10.548;2023-05-14T08:15:11;100726.50;;;20.49;100.00
7050;BME280;22263;52.260;10.548;2023-05-14T08:17:41;100727.41;;;20.46;100.00
7050;BME280;22263;52.260;10.548;2023-05-14T08:20:11;100724.19;;;20.76;100.00
7050;BME280;22263;52.260;10.548;2023-05-14T08:22:41;100728.56;;;21.22;94.51
7050;BME280;22263;52.260;10.548;2023-05-14T08:25:13;100722.81;;;20.97;98.96
7050;BME280;22263;52.260;10.548;2023-05-14T08:27:43;100717.06;;;21.29;98.15
7050;BME280;22263;52.260;10.548;2023-05-14T08:30:13;100720.34;;;20.99;97.50
7050;BME280;22263;52.260;10.548;2023-05-14T08:32:43;100719.59;;;21.40;97.42
7050;BME280;22263;52.260;10.548;2023-05-14T08:35:13;100713.19;;;21.52;91.02
7050;BME280;22263;52.260;10.548;2023-05-14T08:37:43;100713.13;;;22.06;82.93
7050;BME280;22263;52.260;10.548;2023-05-14T08:40:15;100708.25;;;21.69;89.35
7050;BME280;22263;52.260;10.548;2023-05-14T08:42:46;100709.53;;;21.26;96.04
7050;BME280;22263;52.260;10.548;2023-05-14T08:45:18;100707.81;;;20.42;98.13
7050;BME280;22263;52.260;10.548;2023-05-14T08:47:49;100715.09;;;20.40;100.00
7050;BME280;22263;52.260;10.548;2023-05-14T08:50:19;100705.63;;;20.50;100.00
7050;BME280;22263;52.260;10.548;2023-05-14T08:52:49;100708.63;;;21.01;98.38
7050;BME280;22263;52.260;10.548;2023-05-14T08:55:22;100712.22;;;21.17;88.50
7050;BME280;22263;52.260;10.548;2023-05-14T08:57:52;100700.84;;;21.62;78.49
7050;BME280;22263;52.260;10.548;2023-05-14T09:00:22;100699.63;;;22.01;72.09
7050;BME280;22263;52.260;10.548;2023-05-14T09:02:53;100694.97;;;22.20;63.42
7050;BME280;22263;52.260;10.548;2023-05-14T09:05:23;100699.81;;;21.56;72.69
7050;BME280;22263;52.260;10.548;2023-05-14T09:07:53;100703.75;;;21.71;72.36
7050;BME280;22263;52.260;10.548;2023-05-14T09:10:26;100699.44;;;21.54;70.73
7050;BME280;22263;52.260;10.548;2023-05-14T09:12:56;100691.47;;;22.16;63.43
7050;BME280;22263;52.260;10.548;2023-05-14T09:15:26;100683.91;;;21.88;66.28
7050;BME280;22263;52.260;10.548;2023-05-14T09:17:57;100686.50;;;23.01;60.71
7050;BME280;22263;52.260;10.548;2023-05-14T09:20:27;100678.75;;;23.15;62.29
7050;BME280;22263;52.260;10.548;2023-05-14T09:22:57;100681.19;;;23.56;56.23
7050;BME280;22263;52.260;10.548;2023-05-14T09:25:31;100683.19;;;22.69;55.24
7050;BME280;22263;52.260;10.548;2023-05-14T09:28:04;100680.50;;;23.74;52.76
7050;BME280;22263;52.260;10.548;2023-05-14T09:30:35;100677.22;;;23.23;55.15
7050;BME280;22263;52.260;10.548;2023-05-14T09:33:05;100681.47;;;23.49;54.05
7050;BME280;22263;52.260;10.548;2023-05-14T09:35:36;100672.88;;;23.31;54.30
7050;BME280;22263;52.260;10.548;2023-05-14T09:38:07;100666.78;;;22.54;58.04
7050;BME280;22263;52.260;10.548;2023-05-14T09:40:39;100677.22;;;22.79;58.03
7050;BME280;22263;52.260;10.548;2023-05-14T09:43:09;100656.03;;;22.96;57.49
7050;BME280;22263;52.260;10.548;2023-05-14T09:45:39;100659.53;;;23.53;54.90
7050;BME280;22263;52.260;10.548;2023-05-14T09:48:09;100655.41;;;24.61;50.96
7050;BME280;22263;52.260;10.548;2023-05-14T09:50:41;100641.91;;;25.02;47.82
7050;BME280;22263;52.260;10.548;2023-05-14T09:53:12;100639.00;;;25.29;45.43
7050;BME280;22263;52.260;10.548;2023-05-14T09:55:46;100642.06;;;26.15;45.99
7050;BME280;22263;52.260;10.548;2023-05-14T09:58:16;100625.75;;;27.75;41.75
7050;BME280;22263;52.260;10.548;2023-05-14T10:00:46;100623.63;;;25.63;44.32
7050;BME280;22263;52.260;10.548;2023-05-14T10:03:17;100631.63;;;25.13;45.87
7050;BME280;22263;52.260;10.548;2023-05-14T10:05:48;100627.44;;;24.72;48.71
7050;BME280;22263;52.260;10.548;2023-05-14T10:08:23;100616.75;;;24.95;47.15
7050;BME280;22263;52.260;10.548;2023-05-14T10:10:57;100618.13;;;25.17;47.00
7050;BME280;22263;52.260;10.548;2023-05-14T10:13:32;100607.91;;;25.86;45.02
7050;BME280;22263;52.260;10.548;2023-05-14T10:16:07;100611.19;;;25.18;46.25
7050;BME280;22263;52.260;10.548;2023-05-14T10:18:40;100603.00;;;26.58;43.43
7050;BME280;22263;52.260;10.548;2023-05-14T10:21:13;100604.81;;;25.84;46.00
7050;BME280;22263;52.260;10.548;2023-05-14T10:23:43;100597.97;;;28.20;38.04
7050;BME280;22263;52.260;10.548;2023-05-14T10:26:16;100586.78;;;27.61;37.50
7050;BME280;22263;52.260;10.548;2023-05-14T10:28:49;100587.59;;;29.45;35.59
7050;BME280;22263;52.260;10.548;2023-05-14T10:31:22;100579.66;;;29.98;35.41
7050;BME280;22263;52.260;10.548;2023-05-14T10:33:51;100588.19;;;28.26;37.57
7050;BME280;22263;52.260;10.548;2023-05-14T10:36:21;100580.31;;;28.82;35.77
7050;BME280;22263;52.260;10.548;2023-05-14T10:38:54;100572.41;;;30.67;34.53
7050;BME280;22263;52.260;10.548;2023-05-14T10:41:27;100571.19;;;31.07;32.21
7050;BME280;22263;52.260;10.548;2023-05-14T10:43:58;100568.41;;;30.31;31.78
7050;BME280;22263;52.260;10.548;2023-05-14T10:46:28;100562.00;;;30.58;31.65
7050;BME280;22263;52.260;10.548;2023-05-14T10:48:58;100570.69;;;29.73;32.29
7050;BME280;22263;52.260;10.548;2023-05-14T10:51:28;100567.97;;;28.90;33.35
7050;BME280;22263;52.260;10.548;2023-05-14T10:53:59;100560.19;;;28.19;34.82
7050;BME280;22263;52.260;10.548;2023-05-14T10:56:32;100551.56;;;28.80;33.10
7050;BME280;22263;52.260;10.548;2023-05-14T10:59:02;100549.53;;;28.86;32.93
7050;BME280;22263;52.260;10.548;2023-05-14T11:01:32;100543.97;;;29.02;32.95
7050;BME280;22263;52.260;10.548;2023-05-14T11:04:02;100537.91;;;29.52;31.65
7050;BME280;22263;52.260;10.548;2023-05-14T11:06:32;100551.47;;;30.16;30.56
7050;BME280;22263;52.260;10.548;2023-05-14T11:09:03;100535.13;;;30.11;30.60
7050;BME280;22263;52.260;10.548;2023-05-14T11:11:36;100541.13;;;30.24;30.20
7050;BME280;22263;52.260;10.548;2023-05-14T11:14:06;100547.97;;;29.90;31.40
7050;BME280;22263;52.260;10.548;2023-05-14T11:16:36;100543.78;;;29.85;31.44
7050;BME280;22263;52.260;10.548;2023-05-14T11:19:07;100540.00;;;30.05;31.80
7050;BME280;22263;52.260;10.548;2023-05-14T11:21:37;100536.19;;;30.36;31.36
7050;BME280;22263;52.260;10.548;2023-05-14T11:24:07;100535.91;;;29.69;31.26
7050;BME280;22263;52.260;10.548;2023-05-14T11:26:39;100536.56;;;29.11;32.55
7050;BME280;22263;52.260;10.548;2023-05-14T11:29:09;100531.59;;;29.06;31.73
7050;BME280;22263;52.260;10.548;2023-05-14T11:31:39;100523.72;;;28.95;32.49
7050;BME280;22263;52.260;10.548;2023-05-14T11:34:09;100526.34;;;29.30;31.66
7050;BME280;22263;52.260;10.548;2023-05-14T11:36:39;100523.22;;;28.71;32.73
7050;BME280;22263;52.260;10.548;2023-05-14T11:39:16;100512.34;;;28.69;32.33
7050;BME280;22263;52.260;10.548;2023-05-14T11:41:48;100515.88;;;27.52;33.55
7050;BME280;22263;52.260;10.548;2023-05-14T11:44:18;100512.63;;;26.80;34.75
7050;BME280;22263;52.260;10.548;2023-05-14T11:46:54;100519.97;;;27.01;34.48
7050;BME280;22263;52.260;10.548;2023-05-14T11:49:25;100509.78;;;27.09;35.19
7050;BME280;22263;52.260;10.548;2023-05-14T11:51:59;100500.88;;;28.63;34.07
7050;BME280;22263;52.260;10.548;2023-05-14T11:54:30;100492.75;;;29.45;33.22
7050;BME280;22263;52.260;10.548;2023-05-14T11:57:08;100493.22;;;30.67;31.38
7050;BME280;22263;52.260;10.548;2023-05-14T11:59:39;100487.69;;;29.23;32.30
7050;BME280;22263;52.260;10.548;2023-05-14T12:02:09;100504.41;;;28.07;33.86
7050;BME280;22263;52.260;10.548;2023-05-14T12:04:41;100503.50;;;27.05;35.32
7050;BME280;22263;52.260;10.548;2023-05-14T12:07:14;100504.09;;;26.36;36.64
7050;BME280;22263;52.260;10.548;2023-05-14T12:09:46;100503.47;;;25.46;37.89
7050;BME280;22263;52.260;10.548;2023-05-14T12:12:21;100507.34;;;25.57;38.08
7050;BME280;22263;52.260;10.548;2023-05-14T12:14:50;100505.63;;;25.18;38.84
7050;BME280;22263;52.260;10.548;2023-05-14T12:17:21;100503.34;;;25.07;39.27
7050;BME280;22263;52.260;10.548;2023-05-14T12:19:51;100501.84;;;24.70;39.58
7050;BME280;22263;52.260;10.548;2023-05-14T12:22:22;100510.09;;;24.50;39.83
7050;BME280;22263;52.260;10.548;2023-05-14T12:24:53;100500.66;;;24.44;39.90
7050;BME280;22263;52.260;10.548;2023-05-14T12:27:27;100495.22;;;24.22;40.79
7050;BME280;22263;52.260;10.548;2023-05-14T12:29:58;100494.72;;;23.96;41.06
7050;BME280;22263;52.260;10.548;2023-05-14T12:32:46;100485.28;;;23.90;41.02
7050;BME280;22263;52.260;10.548;2023-05-14T12:35:19;100492.50;;;23.64;42.04
7050;BME280;22263;52.260;10.548;2023-05-14T12:37:50;100484.66;;;23.59;41.99
7050;BME280;22263;52.260;10.548;2023-05-14T12:40:19;100485.34;;;23.41;43.93
7050;BME280;22263;52.260;10.548;2023-05-14T12:42:52;100482.00;;;23.73;41.24
7050;BME280;22263;52.260;10.548;2023-05-14T12:45:22;100473.81;;;23.57;42.09
7050;BME280;22263;52.260;10.548;2023-05-14T12:47:52;100473.47;;;23.46;43.03
7050;BME280;22263;52.260;10.548;2023-05-14T12:50:22;100476.63;;;23.48;41.87
7050;BME280;22263;52.260;10.548;2023-05-14T12:52:52;100481.88;;;23.37;42.87
7050;BME280;22263;52.260;10.548;2023-05-14T12:55:21;100470.03;;;23.69;42.11
7050;BME280;22263;52.260;10.548;2023-05-14T12:57:54;100466.63;;;23.93;41.67
7050;BME280;22263;52.260;10.548;2023-05-14T13:00:24;100468.00;;;24.15;40.62
7050;BME280;22263;52.260;10.548;2023-05-14T13:02:53;100461.88;;;24.08;41.36